ウルムチ の空港の天気 - METARとTAF

ウルムチ地窩堡国際空港 ( ZWWW / URC ) - 中国 新疆ウイグル自治区ウルムチ市
飛行場実況気象(Metar)
観測時間01/19 19:00 CST (01/19 11:00 UTC)
風向・風速北北西 1m/s
視程1400m
天気現象もや
全天の8割程度の雲 雲底高度 340m
気温-9℃
湿度92%
気圧1035hPa
METARZWWW 191100Z 33001MPS 1400 R25/P2000N BR BKN011 M09/M10 Q1035 BECMG TL1130 1600 BR
過去の天気等 Google飛行場航空写真 Wunderground天気予報

過去48時間のMETAR

飛行場予報(TAF)
発表時間: 1/19 11:08 CST (1/19 03:08 UTC)
予報対象時間: 19日14時 CST ~ 20日14時 CST
風向・風速北 2m/s
視程1600m
天気現象弱い雪 もや
全天の8割程度の雲 雲底高度 340m
19日21時 CST ~ 19日22時 CST に徐々に
風向・風速南 2m/s
20日8時 CST ~ 20日9時 CST に徐々に
風向・風速北 2m/s
視程1100m
天気現象もや
全天の8割程度の雲 雲底高度 210m
20日8時 CST ~ 20日12時 CST に一時的に
視程700m
天気現象氷霧
全天の8割程度の雲 雲底高度 120m
TAF ZWWW 190308Z 1906/2006 36002MPS 1600 -SN BR BKN011 TXM08/09Z TNM11/23Z
BECMG 1913/1914 18002MPS
BECMG 2000/2001 36002MPS 1100 BR BKN007
TEMPO 2000/2004 0700 FZFG BKN004